createdAt,value
2022-12-04T00:02:36.333Z,74.55
2022-12-04T00:05:40.044Z,82.40
2022-12-04T00:15:24.703Z,85.70
2022-12-04T00:18:17.853Z,69.05
2022-12-04T00:24:25.597Z,83.07
2022-12-04T00:30:34.712Z,80.75
2022-12-04T00:36:42.461Z,79.22
2022-12-04T00:42:51.620Z,79.68
2022-12-04T00:45:55.487Z,74.43
2022-12-04T00:49:01.923Z,79.68
2022-12-04T00:52:05.968Z,81.93
2022-12-04T00:55:10.924Z,82.70
2022-12-04T00:58:16.640Z,73.28
2022-12-04T01:01:22.273Z,79.20
2022-12-04T01:04:26.132Z,78.35
2022-12-04T01:10:33.571Z,81.90
2022-12-04T01:13:39.233Z,77.38
2022-12-04T01:16:43.236Z,84.13
2022-12-04T01:19:47.125Z,92.53
2022-12-04T01:22:50.896Z,67.15
2022-12-04T01:29:00.893Z,77.70
2022-12-04T01:32:05.001Z,77.13
2022-12-04T01:35:09.720Z,76.13
2022-12-04T01:38:13.438Z,75.50
2022-12-04T01:44:25.855Z,77.20
2022-12-04T01:47:29.576Z,77.05
2022-12-04T01:53:39.610Z,79.13
2022-12-04T01:56:49.011Z,80.78
2022-12-04T01:59:58.101Z,76.63
2022-12-04T02:03:02.943Z,69.65
2022-12-04T02:06:07.705Z,79.60
2022-12-04T02:09:11.466Z,77.97
2022-12-04T02:15:31.264Z,70.93
2022-12-04T02:18:40.479Z,71.57
2022-12-04T02:21:47.683Z,72.05
2022-12-04T02:24:58.098Z,70.97
2022-12-04T02:28:10.772Z,83.13
2022-12-04T02:31:20.387Z,71.20
2022-12-04T02:34:28.912Z,75.60
2022-12-04T02:37:35.649Z,79.80
2022-12-04T02:40:47.210Z,74.03
2022-12-04T02:43:54.773Z,74.72
2022-12-04T02:47:02.304Z,76.45
2022-12-04T02:50:10.425Z,70.78
2022-12-04T02:53:17.983Z,71.93
2022-12-04T02:56:26.780Z,74.75
2022-12-04T02:59:37.438Z,67.43
2022-12-04T03:02:46.792Z,76.80
2022-12-04T03:05:57.684Z,81.55
2022-12-04T03:09:07.848Z,78.00
2022-12-04T03:12:17.138Z,72.03
2022-12-04T03:15:29.168Z,75.30
2022-12-04T03:18:35.529Z,71.25
2022-12-04T03:21:43.035Z,82.57
2022-12-04T03:24:52.404Z,75.63
2022-12-04T03:28:01.265Z,80.25
2022-12-04T03:31:10.121Z,68.13
2022-12-04T03:34:17.063Z,79.60
2022-12-04T03:37:25.894Z,72.50
2022-12-04T03:40:36.776Z,82.15
2022-12-04T03:43:48.631Z,78.00
2022-12-04T03:46:59.578Z,75.28
2022-12-04T03:50:06.339Z,71.97
2022-12-04T03:53:18.905Z,73.93
2022-12-04T03:56:26.131Z,76.22
2022-12-04T03:59:33.421Z,73.60
2022-12-04T04:02:44.442Z,71.80
2022-12-04T04:05:52.688Z,74.13
2022-12-04T04:09:00.587Z,84.30
2022-12-04T04:12:09.093Z,79.00
2022-12-04T04:15:30.183Z,77.85
2022-12-04T04:18:49.304Z,77.75
2022-12-04T04:22:08.202Z,76.30
2022-12-04T04:25:14.687Z,76.95
2022-12-04T04:28:34.678Z,82.25
2022-12-04T04:31:43.838Z,83.40
2022-12-04T04:34:58.758Z,74.78
2022-12-04T04:38:10.373Z,77.22
2022-12-04T04:41:19.812Z,83.43
2022-12-04T04:44:29.974Z,76.05
2022-12-04T04:47:37.845Z,86.95
2022-12-04T04:50:44.847Z,78.05
2022-12-04T04:53:52.558Z,80.57
2022-12-04T04:56:56.331Z,78.53
2022-12-04T05:03:04.291Z,73.63
2022-12-04T05:06:10.177Z,77.68
2022-12-04T05:09:13.898Z,81.55
2022-12-04T05:15:21.067Z,82.60
2022-12-04T05:21:28.629Z,82.07
2022-12-04T05:24:32.605Z,77.30
2022-12-04T05:27:36.325Z,76.00
2022-12-04T05:33:43.996Z,78.75
2022-12-04T05:36:49.711Z,79.00
2022-12-04T05:39:54.060Z,81.18
2022-12-04T05:42:59.039Z,81.50
2022-12-04T05:46:02.788Z,76.38
2022-12-04T05:52:12.032Z,82.43
2022-12-04T05:55:15.883Z,83.75
2022-12-04T06:01:25.370Z,59.55
2022-12-04T06:04:29.118Z,76.82
2022-12-04T06:10:38.274Z,77.13
2022-12-04T06:16:47.987Z,73.80
2022-12-04T06:19:52.736Z,77.45
2022-12-04T06:22:58.505Z,65.32
2022-12-04T06:26:07.167Z,76.55
2022-12-04T06:29:12.656Z,71.78
2022-12-04T06:32:21.131Z,81.28
2022-12-04T06:35:25.364Z,70.15
2022-12-04T06:41:34.565Z,76.20
2022-12-04T06:47:41.695Z,73.27
2022-12-04T06:53:51.040Z,78.40
2022-12-04T06:56:54.847Z,60.50
2022-12-04T07:03:02.268Z,63.70
2022-12-04T07:09:22.570Z,78.20
2022-12-04T07:12:26.245Z,62.80
2022-12-04T07:18:34.273Z,70.43
2022-12-04T07:21:38.276Z,64.15
2022-12-04T07:24:43.868Z,57.03
2022-12-04T07:27:48.040Z,66.18
2022-12-04T07:30:51.738Z,66.90
2022-12-04T07:36:59.689Z,61.17
2022-12-04T07:43:09.336Z,56.83
2022-12-04T07:49:17.996Z,55.03
2022-12-04T07:52:21.705Z,53.58
2022-12-04T07:55:27.413Z,46.88
2022-12-04T07:58:31.178Z,41.03
2022-12-04T08:04:39.266Z,44.33
2022-12-04T08:07:43.040Z,43.40
2022-12-04T08:10:48.733Z,38.08
2022-12-04T08:13:56.087Z,38.67
2022-12-04T08:17:00.087Z,40.75
2022-12-04T08:20:04.069Z,37.10
2022-12-04T08:23:07.821Z,35.72
2022-12-04T08:29:17.635Z,35.45
2022-12-04T08:35:24.819Z,35.80
2022-12-04T08:41:34.095Z,33.13
2022-12-04T08:44:37.787Z,30.17
2022-12-04T08:50:46.355Z,29.98
2022-12-04T08:53:53.642Z,26.88
2022-12-04T08:56:59.287Z,29.25
2022-12-04T09:00:03.276Z,30.55
2022-12-04T09:03:07.151Z,29.30
2022-12-04T09:06:12.521Z,31.40
2022-12-04T09:09:16.228Z,27.65
2022-12-04T09:15:25.376Z,28.08
2022-12-04T09:21:32.584Z,30.60
2022-12-04T09:27:43.067Z,29.83
2022-12-04T09:30:47.017Z,30.30
2022-12-04T09:33:51.249Z,28.55
2022-12-04T09:36:55.073Z,31.00
2022-12-04T09:43:09.321Z,21.60
2022-12-04T09:46:18.635Z,30.92
2022-12-04T09:49:27.030Z,30.85
2022-12-04T09:52:47.310Z,29.77
2022-12-04T09:55:57.471Z,27.00
2022-12-04T09:59:08.841Z,28.67
2022-12-04T10:02:26.004Z,27.40
2022-12-04T10:05:42.227Z,29.70
2022-12-04T10:08:48.100Z,29.67
2022-12-04T10:12:03.297Z,30.15
2022-12-04T10:15:21.759Z,28.35
2022-12-04T10:18:37.472Z,31.52
2022-12-04T10:21:53.245Z,31.58
2022-12-04T10:25:00.671Z,35.78
2022-12-04T10:28:11.413Z,37.83
2022-12-04T10:31:17.414Z,37.15
2022-12-04T10:34:25.978Z,37.88
2022-12-04T10:37:30.241Z,38.20
2022-12-04T10:40:37.210Z,36.08
2022-12-04T10:43:45.094Z,42.60
2022-12-04T10:46:54.833Z,36.47
2022-12-04T10:50:01.991Z,45.63
2022-12-04T10:53:10.724Z,38.05
2022-12-04T10:56:19.808Z,43.95
2022-12-04T10:59:23.977Z,40.75
2022-12-04T11:02:32.058Z,43.90
2022-12-04T11:05:40.233Z,47.53
2022-12-04T11:08:50.203Z,57.30
2022-12-04T11:11:54.190Z,48.58
2022-12-04T11:15:14.945Z,56.85
2022-12-04T11:18:22.825Z,50.35
2022-12-04T11:21:30.915Z,45.33
2022-12-04T11:24:37.002Z,54.72
2022-12-04T11:27:40.931Z,52.75
2022-12-04T11:30:49.912Z,50.03
2022-12-04T11:33:58.223Z,51.08
2022-12-04T11:37:02.286Z,55.42
2022-12-04T11:40:16.153Z,52.42
2022-12-04T11:43:20.444Z,55.15
2022-12-04T11:46:26.358Z,55.88
2022-12-04T11:49:34.692Z,52.85
2022-12-04T11:52:58.921Z,49.35
2022-12-04T11:56:22.031Z,48.70
2022-12-04T11:59:50.048Z,52.55
2022-12-04T12:03:15.262Z,46.03
2022-12-04T12:06:32.273Z,49.95
2022-12-04T12:09:47.717Z,55.40
2022-12-04T12:13:02.015Z,47.63
2022-12-04T12:16:13.955Z,50.83
2022-12-04T12:19:51.422Z,49.78
2022-12-04T12:23:19.561Z,53.53
2022-12-04T12:26:28.749Z,58.47
2022-12-04T12:29:45.979Z,57.20
2022-12-04T12:33:01.499Z,54.60
2022-12-04T12:36:09.903Z,54.80
2022-12-04T12:39:22.368Z,50.83
2022-12-04T12:42:30.242Z,48.53
2022-12-04T12:45:42.083Z,53.40
2022-12-04T12:48:58.104Z,49.20
2022-12-04T12:52:07.542Z,50.78
2022-12-04T12:55:20.713Z,50.30
2022-12-04T12:58:31.125Z,53.33
2022-12-04T13:01:44.894Z,53.30
2022-12-04T13:04:52.348Z,54.05
2022-12-04T13:08:05.049Z,51.35
2022-12-04T13:11:14.371Z,50.40
2022-12-04T13:14:18.305Z,51.33
2022-12-04T13:17:32.154Z,49.50
2022-12-04T13:20:45.038Z,51.58
2022-12-04T13:23:58.318Z,53.53
2022-12-04T13:27:11.291Z,49.58
2022-12-04T13:30:20.018Z,42.35
2022-12-04T13:33:50.940Z,51.22
2022-12-04T13:37:09.301Z,47.78
2022-12-04T13:40:33.870Z,42.22
2022-12-04T13:43:47.613Z,38.97
2022-12-04T13:46:55.839Z,43.40
2022-12-04T13:50:26.536Z,38.35
2022-12-04T13:53:36.714Z,43.47
2022-12-04T13:56:41.768Z,33.58
2022-12-04T13:59:48.261Z,44.05
2022-12-04T14:02:55.321Z,34.38
2022-12-04T14:05:59.698Z,41.13
2022-12-04T14:09:05.974Z,44.22
2022-12-04T14:12:13.360Z,41.33
2022-12-04T14:15:25.937Z,45.80
2022-12-04T14:18:31.521Z,40.97
2022-12-04T14:21:41.105Z,44.72
2022-12-04T14:24:44.817Z,42.80
2022-12-04T14:27:51.265Z,44.22
2022-12-04T14:31:15.407Z,40.28
2022-12-04T14:34:26.446Z,44.70
2022-12-04T14:37:35.609Z,42.00
2022-12-04T14:40:45.178Z,51.28
2022-12-04T14:43:51.210Z,43.28
2022-12-04T14:50:24.504Z,46.53
2022-12-04T14:53:37.512Z,45.05
2022-12-04T14:56:54.079Z,50.55
2022-12-04T14:59:59.981Z,51.15
2022-12-04T15:03:05.743Z,46.40
2022-12-04T15:06:17.211Z,57.80
2022-12-04T15:09:39.274Z,56.25
2022-12-04T15:12:47.762Z,62.83
2022-12-04T15:15:52.016Z,55.88
2022-12-04T15:18:59.551Z,57.53
2022-12-04T15:22:08.780Z,61.85
2022-12-04T15:25:21.240Z,60.92
2022-12-04T15:28:30.131Z,61.08
2022-12-04T15:31:38.263Z,55.88
2022-12-04T15:34:46.745Z,58.97
2022-12-04T15:37:50.832Z,54.65
2022-12-04T15:40:56.489Z,61.15
2022-12-04T15:44:01.006Z,52.03
2022-12-04T15:47:16.473Z,65.82
2022-12-04T15:50:26.407Z,64.88
2022-12-04T15:53:32.865Z,58.88
2022-12-04T15:56:36.526Z,60.55
2022-12-04T15:59:40.343Z,57.33
2022-12-04T16:08:55.733Z,59.00
2022-12-04T16:12:01.010Z,58.30
2022-12-04T16:15:06.224Z,60.70
2022-12-04T16:18:14.724Z,59.47
2022-12-04T16:21:23.370Z,60.72
2022-12-04T16:24:27.694Z,57.13
2022-12-04T16:27:31.372Z,59.28
2022-12-04T16:30:36.961Z,60.47
2022-12-04T16:33:41.325Z,60.45
2022-12-04T16:36:47.090Z,54.92
2022-12-04T16:39:51.372Z,54.42
2022-12-04T16:42:55.133Z,54.88
2022-12-04T16:46:02.058Z,49.65
2022-12-04T16:49:07.605Z,55.78
2022-12-04T16:52:14.143Z,58.92
2022-12-04T16:55:21.595Z,62.47
2022-12-04T16:58:25.505Z,58.50
2022-12-04T17:01:37.735Z,57.58
2022-12-04T17:04:41.571Z,55.17
2022-12-04T17:10:51.486Z,49.58
2022-12-04T17:13:55.182Z,55.65
2022-12-04T17:16:58.886Z,64.40
2022-12-04T17:20:02.764Z,50.50
2022-12-04T17:26:13.799Z,59.90
2022-12-04T17:29:17.523Z,59.97
2022-12-04T17:32:21.362Z,59.05
2022-12-04T17:38:30.502Z,63.58
2022-12-04T17:41:34.395Z,52.70
2022-12-04T17:44:38.074Z,65.80
2022-12-04T17:47:41.842Z,58.28
2022-12-04T17:50:47.047Z,74.75
2022-12-04T17:53:53.118Z,70.00
2022-12-04T17:56:58.160Z,66.25
2022-12-04T18:00:02.165Z,62.67
2022-12-04T18:06:21.549Z,65.30
2022-12-04T18:09:27.183Z,59.13
2022-12-04T18:12:31.017Z,65.00
2022-12-04T18:15:36.542Z,59.10
2022-12-04T18:18:40.980Z,57.00
2022-12-04T18:21:44.690Z,65.97
2022-12-04T18:27:53.890Z,57.55
2022-12-04T18:34:01.123Z,61.20
2022-12-04T18:40:12.446Z,63.33
2022-12-04T18:43:16.118Z,52.58
2022-12-04T18:46:21.168Z,61.65
2022-12-04T18:49:24.939Z,58.00
2022-12-04T18:52:28.671Z,64.22
2022-12-04T18:55:36.997Z,63.05
2022-12-04T18:58:40.866Z,63.17
2022-12-04T19:04:48.502Z,54.25
2022-12-04T19:07:53.125Z,53.58
2022-12-04T19:11:06.019Z,56.28
2022-12-04T19:14:19.245Z,60.03
2022-12-04T19:17:26.638Z,53.75
2022-12-04T19:20:30.416Z,55.10
2022-12-04T19:26:39.993Z,58.17
2022-12-04T19:29:45.814Z,51.88
2022-12-04T19:36:00.376Z,49.38
2022-12-04T19:39:06.420Z,52.22
2022-12-04T19:42:12.419Z,52.38
2022-12-04T19:45:16.258Z,55.33
2022-12-04T19:51:23.774Z,44.50
2022-12-04T19:54:29.380Z,48.50
2022-12-04T19:57:35.173Z,55.45
2022-12-04T20:00:38.852Z,46.70
2022-12-04T20:03:43.178Z,46.85
2022-12-04T20:06:48.078Z,51.60
2022-12-04T20:09:52.527Z,49.38
2022-12-04T20:12:58.492Z,50.13
2022-12-04T20:16:03.399Z,50.25
2022-12-04T20:19:09.053Z,47.47
2022-12-04T20:22:12.797Z,48.80
2022-12-04T20:25:16.579Z,55.58
2022-12-04T20:28:22.814Z,45.72
2022-12-04T20:31:29.031Z,48.85
2022-12-04T20:34:32.788Z,47.35
2022-12-04T20:37:37.227Z,49.28
2022-12-04T20:40:40.963Z,46.03
2022-12-04T20:43:48.037Z,49.28
2022-12-04T20:46:52.753Z,49.22
2022-12-04T20:49:56.875Z,49.63
2022-12-04T20:53:00.925Z,48.10
2022-12-04T20:56:04.601Z,49.85
2022-12-04T20:59:13.390Z,47.10
2022-12-04T21:02:17.103Z,51.28
2022-12-04T21:08:37.484Z,52.07
2022-12-04T21:11:43.343Z,51.30
2022-12-04T21:15:02.106Z,47.63
2022-12-04T21:18:08.091Z,53.72
2022-12-04T21:21:11.832Z,47.63
2022-12-04T21:24:17.057Z,46.17
2022-12-04T21:27:21.373Z,47.50
2022-12-04T21:30:27.122Z,49.58
2022-12-04T21:33:31.759Z,56.20
2022-12-04T21:36:35.661Z,47.10
2022-12-04T21:42:43.409Z,53.03
2022-12-04T21:45:58.085Z,61.42
2022-12-04T21:49:01.970Z,55.55
2022-12-04T21:55:09.792Z,64.32
2022-12-04T21:58:13.694Z,54.25
2022-12-04T22:01:22.344Z,52.70
2022-12-04T22:04:26.099Z,62.15
2022-12-04T22:10:33.273Z,66.10
2022-12-04T22:13:37.475Z,51.15
2022-12-04T22:16:43.607Z,54.92
2022-12-04T22:19:47.492Z,54.15
2022-12-04T22:22:51.275Z,57.45
2022-12-04T22:28:59.095Z,58.28
2022-12-04T22:32:05.016Z,51.92
2022-12-04T22:35:09.423Z,53.83
2022-12-04T22:38:13.102Z,51.47
2022-12-04T22:41:18.468Z,56.72
2022-12-04T22:44:22.321Z,52.90
2022-12-04T22:50:31.325Z,55.05
2022-12-04T22:53:38.614Z,54.75
2022-12-04T22:56:43.548Z,55.92
2022-12-04T22:59:47.341Z,58.55
2022-12-04T23:06:02.855Z,53.47
2022-12-04T23:09:08.716Z,57.33
2022-12-04T23:12:12.418Z,54.20
2022-12-04T23:15:16.280Z,59.70
2022-12-04T23:21:26.479Z,57.03
2022-12-04T23:24:30.214Z,58.63
2022-12-04T23:27:34.040Z,56.95
2022-12-04T23:33:43.713Z,41.13
2022-12-04T23:36:47.457Z,61.38
2022-12-04T23:39:51.146Z,60.28
2022-12-04T23:42:55.067Z,51.60
2022-12-04T23:49:04.412Z,60.83
2022-12-04T23:52:08.173Z,58.53
2022-12-04T23:58:15.299Z,55.60
